logo
Search for airport 
image banner adimage banner adimage banner ad
image banner ad

FACG - Caledon

Located in , South Africa

ICAO - , IATA -

Data provided by Airmate  

General information

Coordinates: S34°15'34" E19°24'58"
Elevation is 938 feet MSL.
 
View others Airports in Western Cape

Operational data

Special qualification required
Current time UTC:
Current local time:
Weather at : - ( 0 km )
METAR: UUWW 171605Z 13005G10MPS 100V170 9999 -TSRA FEW009 BKN026CB 19/17 Q1009 R06/290050 TEMPO VRB19MPS 0500 +TSRAGR SQ BKN010CB
View NOTAMs / SUP AIP / TFR affecting this airport [VIEW]
Communications frequencies: [VIEW]

Runways:

RWY identifierQFULength (ft)Width (ft)SurfaceLDA (ft)
0770°2723164SAND
25250°2723164SAND
13110°2625115SAND
31290°2625115SAND

Airport contact information

Address: South Africa

Satellite view of FACG